Aeroporto :
LOGIN :

Iscrizione | Disclaimer

   EN    FR    IT 

 










Sommario :    VFR   VFR Marginale   IFR   IFR Intensivo   IFR Molto Intensivo
Visibilità : 
Base nubi : 
>= 8 km
>= 3000ft
5 / 8 km
1000 / 3000 ft
1500m / 5 km
500 / 1000 ft
800 / 1500m
200 / 500 ft
< 800m
< 200 ft
Simboli :   Temporali  Nebbia  Neve Forte  Precipitazioni Forti  Vento > 20 kt
SIGMETs :   Varie  Temporali  Ghiacco  Turbolenza  Onda orograficha  Ceneri Vulcaniche






- Altitudine del aeroporto : 364 ft
- Codice IATA : FRA


EDDF - Frankfurt Int.

ULTIMO METAR :
  • 270720Z VRB02KT 6000 2000S BR BKN007 01/00 Q1021 TEMPO 4000

METARs OBSOLETI :
  • 270650Z 18001KT 6000 SCT007 02/01 Q1021 TEMPO 4000 BR BKN007
  • 270620Z 20001KT 7000 BKN007 02/01 Q1021 TEMPO 4000 BR

TAF TAF EDDF
Valido dal 27 a 06 ore il 28 a 12 ore UTC


270500Z 2706/2812 06003KT 9999 BKN008
TEMPO 2706/2709 4000 BR SCT008 BKN045
BECMG 2709/2712 SCT009
BECMG 2719/2722 BKN008
TEMPO 2721/2810 4000 BR BKN004



MetMap, La meteo Aeronautica in un colpo d'occhio ! - Copyright ORBIFLY Dicembre 2007 - Disclaimer

ORBIFLY MET'MAP TEAM :

Programmazione e sviluppo : Alexandra Zaïnal
Concezione : Baudouin d'Aumeries
Aiuto per la programmazione : Marc-Olivier Méhu
Supporto tecnico e logistico : Manuel Goepfert
Aiuto per la traduzione : Arnaldo La Scala

Contatto : metmap@orbifly.com




FONTI E CREDITI :

   NOAA